Time;durP1;ratioP1;P1;durP2;ratioP2;P2;SDS_P1;SDS_P2;PMS_P1;PMS_P2;Temp;Humidity;BMP_temperature;BMP_pressure;BME280_temperature;BME280_humidity;BME280_pressure;Samples;Min_cycle;Max_cycle;Signal;HPM_P1;HPM_P2
2022/08/31 00:05:26;;;;;;;2.90;0.70;;;;;;;-148.88;61.53;75811.75;5055782;28;20067;-86
2022/08/31 00:07:52;;;;;;;1.42;0.80;;;;;;;-148.88;61.75;75815.81;5055813;28;20059;-86
2022/08/31 00:10:18;;;;;;;2.33;0.90;;;;;;;-148.88;61.98;75817.84;5056044;28;20423;-86
2022/08/31 00:12:46;;;;;;;1.95;1.00;;;;;;;-148.88;61.67;75828.00;5071102;28;20021;-86
2022/08/31 00:15:16;;;;;;;2.20;0.90;;;;;;;-148.88;61.69;75842.22;5070814;28;20094;-85
2022/08/31 00:17:41;;;;;;;1.75;0.80;;;;;;;-148.88;61.57;75846.28;5055617;28;20028;-86
2022/08/31 00:20:09;;;;;;;2.80;0.90;;;;;;;-148.88;61.62;75850.34;5055610;28;20024;-86
2022/08/31 00:22:34;;;;;;;1.83;0.70;;;;;;;-148.88;61.79;75850.34;5055838;28;20032;-86
2022/08/31 00:24:59;;;;;;;1.40;0.70;;;;;;;-148.88;61.42;75858.47;5070697;28;20034;-86
2022/08/31 00:27:25;;;;;;;2.17;0.88;;;;;;;-148.88;61.38;75862.53;5055316;28;20025;-86
2022/08/31 00:29:50;;;;;;;1.52;0.80;;;;;;;-148.88;61.26;75850.34;5055390;28;20035;-86
2022/08/31 00:32:15;;;;;;;3.30;0.88;;;;;;;-148.88;61.27;75858.47;5055667;28;20106;-86
2022/08/31 00:34:41;;;;;;;3.10;0.80;;;;;;;-148.88;61.68;75866.59;5054550;28;20025;-86
2022/08/31 00:37:06;;;;;;;1.77;0.80;;;;;;;-148.88;61.35;75864.56;5055367;28;20462;-86
2022/08/31 00:39:31;;;;;;;3.70;1.00;;;;;;;-148.88;61.14;75864.56;5054020;28;20027;-86
2022/08/31 00:41:57;;;;;;;2.05;0.80;;;;;;;-148.88;61.39;75862.53;5055363;28;20020;-86
2022/08/31 00:44:22;;;;;;;2.00;0.75;;;;;;;-148.88;61.55;75870.66;5054845;28;20518;-86
2022/08/31 00:46:48;;;;;;;1.50;0.90;;;;;;;-148.88;61.43;75878.78;5070490;28;20395;-86
2022/08/31 00:49:17;;;;;;;2.08;0.63;;;;;;;-148.88;61.73;75888.94;5055044;28;20028;-86
2022/08/31 00:51:48;;;;;;;3.20;0.75;;;;;;;-148.88;61.77;75882.84;5070385;28;20048;-86
2022/08/31 00:54:17;;;;;;;2.92;0.80;;;;;;;-148.88;62.04;75895.03;5054872;28;20025;-86
2022/08/31 00:56:43;;;;;;;1.55;0.60;;;;;;;-148.88;62.09;75903.16;5054987;28;20021;-86
2022/08/31 00:59:10;;;;;;;1.40;0.73;;;;;;;-148.88;61.94;75897.06;5055017;28;20423;-86
2022/08/31 01:01:36;;;;;;;1.75;0.75;;;;;;;-148.88;62.97;75915.34;5055063;28;20083;-86
2022/08/31 01:04:02;;;;;;;2.85;0.70;;;;;;;-148.88;62.72;75909.25;5054682;28;20029;-86
2022/08/31 01:06:27;;;;;;;1.30;0.60;;;;;;;-148.88;62.67;75927.53;5054506;28;20021;-86
2022/08/31 01:08:56;;;;;;;2.17;0.85;;;;;;;-148.88;62.83;75927.53;5054716;28;20446;-86
2022/08/31 01:11:21;;;;;;;2.17;0.68;;;;;;;-148.88;62.51;75929.56;5053459;28;20025;-86
2022/08/31 01:13:47;;;;;;;1.45;0.70;;;;;;;-148.88;62.61;75935.66;5054809;28;20025;-86
2022/08/31 01:16:21;;;;;;;2.47;0.85;;;;;;;-148.88;62.72;75955.97;5054454;28;20021;-86
2022/08/31 01:18:47;;;;;;;2.40;0.90;;;;;;;-148.88;62.56;75947.84;5054724;28;20028;-86
2022/08/31 01:21:23;;;;;;;2.22;0.80;;;;;;;-148.88;62.73;75951.91;5054487;28;20021;-86
2022/08/31 01:23:50;;;;;;;2.00;0.70;;;;;;;-148.88;62.84;75958.00;5054721;28;20029;-86
2022/08/31 01:26:19;;;;;;;1.42;0.60;;;;;;;-148.88;62.89;75939.72;5054222;28;20017;-86
2022/08/31 01:28:45;;;;;;;1.70;0.68;;;;;;;-148.88;63.24;75966.13;5054325;28;20029;-86
2022/08/31 01:31:30;;;;;;;2.72;0.70;;;;;;;-148.88;63.28;75968.16;5054617;28;20025;-86
2022/08/31 01:33:56;;;;;;;2.05;0.70;;;;;;;-148.88;63.40;75970.19;5052971;28;20029;-86
2022/08/31 01:36:22;;;;;;;1.83;0.70;;;;;;;-148.88;63.66;75980.34;5054363;28;20036;-85
2022/08/31 01:38:48;;;;;;;1.63;0.65;;;;;;;-148.88;63.38;75980.34;5054065;28;20438;-86
2022/08/31 01:41:13;;;;;;;1.17;0.60;;;;;;;-148.88;63.69;75984.41;5052682;28;20067;-86
2022/08/31 01:43:39;;;;;;;3.08;0.90;;;;;;;-148.88;64.02;75984.41;5053941;28;20028;-86
2022/08/31 01:46:08;;;;;;;2.20;0.65;;;;;;;-148.88;64.16;75988.47;5053874;28;20025;-86
2022/08/31 01:48:35;;;;;;;1.33;0.60;;;;;;;-148.88;64.00;75988.47;5053833;28;20025;-86
2022/08/31 01:51:01;;;;;;;1.42;0.70;;;;;;;-148.88;63.93;75998.63;5069686;28;20017;-86
2022/08/31 01:53:27;;;;;;;1.63;0.77;;;;;;;-148.88;64.36;76004.72;5053894;28;20021;-85
2022/08/31 01:55:52;;;;;;;2.17;0.80;;;;;;;-148.88;64.28;76004.72;5054174;28;20021;-86
2022/08/31 01:58:17;;;;;;;2.40;0.80;;;;;;;-148.88;64.49;76008.78;5054082;28;20475;-86
2022/08/31 02:00:44;;;;;;;4.35;0.90;;;;;;;-148.88;64.15;75998.63;5053727;28;20017;-86
2022/08/31 02:03:10;;;;;;;2.10;0.75;;;;;;;-148.88;63.90;75992.53;5053738;28;20029;-86
2022/08/31 02:05:36;;;;;;;3.15;1.02;;;;;;;-148.88;63.94;75998.63;5053951;28;20108;-86
2022/08/31 02:08:05;;;;;;;1.55;0.80;;;;;;;-148.88;64.23;76000.66;5053444;28;20058;-86
2022/08/31 02:10:30;;;;;;;1.65;0.70;;;;;;;-148.88;63.92;75998.63;5069563;28;20048;-86
2022/08/31 02:12:56;;;;;;;1.73;0.70;;;;;;;-148.88;64.13;75998.63;5053820;28;20092;-86
2022/08/31 02:15:21;;;;;;;3.70;0.77;;;;;;;-148.88;64.15;76000.66;5069075;28;20028;-86
2022/08/31 02:17:46;;;;;;;1.08;0.50;;;;;;;-148.88;63.90;75994.56;5053955;28;20020;-86
2022/08/31 02:20:13;;;;;;;2.15;0.70;;;;;;;-148.88;64.13;76000.66;5053591;28;20051;-86
2022/08/31 02:22:38;;;;;;;2.65;0.70;;;;;;;-148.88;64.58;75996.59;5053436;28;20025;-86
2022/08/31 02:25:04;;;;;;;2.97;0.80;;;;;;;-148.88;64.07;75996.59;5053547;28;20032;-86
2022/08/31 02:27:30;;;;;;;1.40;0.60;;;;;;;-148.88;64.23;75992.53;5068566;28;20438;-86
2022/08/31 02:29:56;;;;;;;3.05;0.80;;;;;;;-148.88;63.85;75996.59;5053193;28;20533;-86
2022/08/31 02:32:22;;;;;;;2.33;1.05;;;;;;;-148.88;64.33;75986.44;5068744;28;20021;-85
2022/08/31 02:34:48;;;;;;;2.72;0.80;;;;;;;-148.88;64.48;75996.59;5068520;28;20025;-86
2022/08/31 02:37:14;;;;;;;1.75;0.73;;;;;;;-148.88;64.53;76002.69;5052163;28;20071;-86
2022/08/31 02:39:39;;;;;;;1.88;0.70;;;;;;;-148.88;64.61;76008.78;5053780;28;20471;-86
2022/08/31 02:42:05;;;;;;;1.63;0.77;;;;;;;-148.88;64.76;76010.81;5052931;28;20104;-86
2022/08/31 02:44:30;;;;;;;2.28;0.60;;;;;;;-148.88;65.11;76012.84;5068148;28;20040;-86
2022/08/31 02:46:55;;;;;;;1.10;0.60;;;;;;;-148.88;64.91;76020.97;5065116;22;20510;-77
2022/08/31 02:49:21;;;;;;;1.60;0.80;;;;;;;-148.88;65.34;76025.03;5052004;28;20032;-76
2022/08/31 02:51:46;;;;;;;1.30;0.70;;;;;;;-148.88;65.61;76029.09;5051996;28;20020;-76
2022/08/31 02:54:12;;;;;;;2.20;0.80;;;;;;;-148.88;66.24;76039.25;5051905;28;20016;-76
2022/08/31 02:56:37;;;;;;;2.20;0.80;;;;;;;-148.88;66.11;76041.28;5051984;28;20112;-76
2022/08/31 02:59:04;;;;;;;1.60;0.77;;;;;;;-148.88;66.49;76035.19;5051849;28;20170;-76
2022/08/31 03:01:29;;;;;;;2.50;1.05;;;;;;;-148.88;66.60;76049.41;5051883;28;20024;-76
2022/08/31 03:03:55;;;;;;;1.77;0.70;;;;;;;-148.88;66.79;76041.28;5054666;28;20381;-76
2022/08/31 03:06:21;;;;;;;1.90;0.80;;;;;;;-148.88;66.75;76041.28;5055874;28;20078;-76
2022/08/31 03:08:47;;;;;;;1.95;0.70;;;;;;;-148.88;67.14;76043.31;5055697;28;20017;-76
2022/08/31 03:11:13;;;;;;;1.67;0.77;;;;;;;-148.88;67.21;76045.34;5055800;28;20063;-77
2022/08/31 03:13:39;;;;;;;2.00;0.85;;;;;;;-148.88;67.16;76051.44;5056020;28;20103;-76
2022/08/31 03:16:05;;;;;;;3.80;0.90;;;;;;;-148.88;67.70;76049.41;5055760;28;20035;-76
2022/08/31 03:18:31;;;;;;;2.33;0.73;;;;;;;-148.88;67.58;76047.38;5054182;28;20025;-77
2022/08/31 03:20:57;;;;;;;2.47;1.08;;;;;;;-148.88;68.31;76051.44;5055885;28;20025;-76
2022/08/31 03:23:22;;;;;;;2.47;1.00;;;;;;;-148.88;68.29;76053.47;5055820;28;20051;-76
2022/08/31 03:25:47;;;;;;;3.67;0.77;;;;;;;-148.88;68.51;76059.56;5055671;28;20395;-76
2022/08/31 03:28:13;;;;;;;2.30;0.70;;;;;;;-148.88;68.31;76049.41;5055326;28;20107;-76
2022/08/31 03:30:39;;;;;;;1.83;0.80;;;;;;;-148.88;68.90;76059.56;5054096;28;20043;-76
2022/08/31 03:33:04;;;;;;;1.77;0.80;;;;;;;-148.88;68.75;76047.38;5055472;28;20052;-76
2022/08/31 03:35:30;;;;;;;2.17;0.90;;;;;;;-148.88;68.83;76041.28;5053994;28;20017;-76
2022/08/31 03:37:55;;;;;;;2.17;0.70;;;;;;;-148.88;69.21;76049.41;5053921;28;20166;-76
2022/08/31 03:40:20;;;;;;;3.42;0.82;;;;;;;-148.88;68.93;76045.34;5055611;28;20159;-77
2022/08/31 03:42:46;;;;;;;2.25;0.73;;;;;;;-148.88;69.14;76051.44;5055242;28;20032;-78
2022/08/31 03:45:11;;;;;;;1.85;0.75;;;;;;;-148.88;69.41;76053.47;5055268;28;20040;-76
2022/08/31 03:47:37;;;;;;;2.10;1.13;;;;;;;-148.88;69.45;76057.53;5055045;28;20124;-76
2022/08/31 03:50:04;;;;;;;2.03;0.90;;;;;;;-148.88;69.36;76053.47;5053740;28;20032;-78
2022/08/31 03:52:30;;;;;;;4.10;1.27;;;;;;;-148.88;69.68;76059.56;5055026;28;20029;-76
2022/08/31 03:54:56;;;;;;;2.17;0.95;;;;;;;-148.88;69.56;76065.66;5055010;28;20025;-76
2022/08/31 03:57:21;;;;;;;3.03;0.60;;;;;;;-148.88;69.88;76053.47;5053670;28;20021;-77
2022/08/31 03:59:50;;;;;;;1.27;0.70;;;;;;;-148.88;69.61;76053.47;5053953;28;20025;-76
2022/08/31 04:02:16;;;;;;;2.03;0.80;;;;;;;-148.88;69.96;76057.53;5054956;28;20086;-77
2022/08/31 04:04:41;;;;;;;1.38;0.70;;;;;;;-148.88;70.06;76057.53;5055002;28;20403;-78
2022/08/31 04:07:06;;;;;;;1.45;0.70;;;;;;;-148.88;70.08;76061.59;5053520;28;20032;-78
2022/08/31 04:09:32;;;;;;;2.92;0.85;;;;;;;-148.88;69.91;76051.44;5053472;28;20443;-77
2022/08/31 04:11:57;;;;;;;1.30;0.70;;;;;;;-148.88;70.03;76057.53;5053561;28;20073;-77
2022/08/31 04:14:22;;;;;;;3.40;0.90;;;;;;;-148.88;70.25;76065.66;5053262;28;20025;-77
2022/08/31 04:16:47;;;;;;;2.40;0.90;;;;;;;-148.88;70.13;76057.53;5054768;28;20024;-77
2022/08/31 04:19:14;;;;;;;2.22;0.90;;;;;;;-148.88;70.53;76061.59;5056459;28;20104;-78
2022/08/31 04:21:42;;;;;;;1.85;0.77;;;;;;;-148.88;70.51;76061.59;5054823;28;20025;-76
2022/08/31 04:24:08;;;;;;;3.38;0.80;;;;;;;-148.88;70.54;76055.50;5054988;28;20055;-77
2022/08/31 04:26:36;;;;;;;2.30;0.90;;;;;;;-148.88;70.45;76053.47;5053166;28;20106;-76
2022/08/31 04:29:02;;;;;;;1.60;0.80;;;;;;;-148.88;70.37;76057.53;5054543;28;20067;-77
2022/08/31 04:31:28;;;;;;;1.77;0.80;;;;;;;-148.88;70.57;76061.59;5055918;28;20025;-77
2022/08/31 04:33:55;;;;;;;1.73;0.80;;;;;;;-148.88;70.63;76065.66;5056295;28;20317;-78
2022/08/31 04:36:23;;;;;;;2.50;0.85;;;;;;;-148.88;70.87;76063.63;5055080;28;20032;-76
2022/08/31 04:38:50;;;;;;;1.58;0.80;;;;;;;-148.88;71.14;76065.66;5054994;28;20021;-77
2022/08/31 04:41:18;;;;;;;0.95;0.65;;;;;;;-148.88;71.15;76067.69;5055099;28;20028;-77
2022/08/31 04:43:46;;;;;;;1.73;0.65;;;;;;;-148.88;71.28;76073.78;5053922;28;20116;-77
2022/08/31 04:46:12;;;;;;;2.65;0.80;;;;;;;-148.88;71.09;76071.75;5055979;28;20029;-77
2022/08/31 04:48:38;;;;;;;3.15;1.13;;;;;;;-148.88;71.70;76073.78;5054600;28;20013;-78
2022/08/31 04:51:06;;;;;;;3.38;0.80;;;;;;;-148.88;72.00;76077.84;5055125;28;20085;-78
2022/08/31 04:53:32;;;;;;;2.88;0.90;;;;;;;-148.88;72.00;76090.03;5055588;28;20054;-77
2022/08/31 04:55:58;;;;;;;2.60;1.00;;;;;;;-148.88;72.13;76088.00;5055646;28;20123;-78
2022/08/31 04:58:23;;;;;;;2.03;0.90;;;;;;;-148.88;71.99;76081.91;5053641;28;20063;-77
2022/08/31 05:00:52;;;;;;;3.15;1.38;;;;;;;-148.88;72.22;76085.97;5054368;28;20032;-78
2022/08/31 05:03:19;;;;;;;3.10;1.20;;;;;;;-148.88;72.49;76092.06;5055284;28;20112;-77
2022/08/31 05:05:49;;;;;;;2.85;1.10;;;;;;;-148.88;72.46;76090.03;5055444;28;20036;-77
2022/08/31 05:08:15;;;;;;;1.83;0.82;;;;;;;-148.88;72.41;76090.03;5055599;28;20028;-77
2022/08/31 05:10:40;;;;;;;3.03;1.15;;;;;;;-148.88;72.82;76083.94;5055644;28;20033;-77
2022/08/31 05:13:06;;;;;;;1.73;0.90;;;;;;;-148.88;72.90;76090.03;5056540;28;20025;-77
2022/08/31 05:15:32;;;;;;;2.50;1.00;;;;;;;-148.88;73.22;76085.97;5054453;28;20029;-76
2022/08/31 05:17:57;;;;;;;1.88;0.90;;;;;;;-148.88;72.85;76094.09;5054247;28;20090;-77
2022/08/31 05:20:23;;;;;;;1.75;1.00;;;;;;;-148.88;73.37;76098.16;5056078;28;20021;-77
2022/08/31 05:22:49;;;;;;;2.75;0.98;;;;;;;-148.88;73.34;76088.00;5054276;28;20056;-77
2022/08/31 05:25:14;;;;;;;1.75;0.95;;;;;;;-148.88;73.74;76102.22;5053277;28;20408;-77
2022/08/31 05:27:40;;;;;;;2.47;0.90;;;;;;;-148.88;73.44;76092.06;5052291;28;20012;-77
2022/08/31 05:30:07;;;;;;;1.98;0.93;;;;;;;-148.88;73.86;76106.28;5053457;28;20029;-77
2022/08/31 05:32:32;;;;;;;2.33;1.00;;;;;;;-148.88;73.61;76090.03;5053989;28;20020;-77
2022/08/31 05:34:57;;;;;;;1.88;1.10;;;;;;;-148.88;73.67;76081.91;5052209;28;20115;-77
2022/08/31 05:37:22;;;;;;;2.10;1.05;;;;;;;-148.88;73.44;76077.84;5054536;28;20116;-78
2022/08/31 05:39:48;;;;;;;1.65;0.82;;;;;;;-148.88;73.62;76081.91;5054633;28;20021;-78
2022/08/31 05:42:14;;;;;;;2.47;1.00;;;;;;;-148.88;73.57;76081.91;5053158;28;20573;-77
2022/08/31 05:44:40;;;;;;;1.55;0.85;;;;;;;-148.88;73.73;76073.78;5053381;28;20117;-77
2022/08/31 05:47:05;;;;;;;1.73;0.95;;;;;;;-148.88;73.50;76073.78;5052598;28;20345;-78
2022/08/31 05:49:32;;;;;;;2.40;0.80;;;;;;;-148.88;73.62;76077.84;5052889;28;20424;-77
2022/08/31 05:51:58;;;;;;;2.80;1.15;;;;;;;-148.88;73.90;76077.84;5051764;28;20028;-77
2022/08/31 05:54:24;;;;;;;2.35;0.88;;;;;;;-148.88;74.00;76079.88;5052895;28;20029;-76
2022/08/31 05:56:50;;;;;;;2.20;1.10;;;;;;;-148.88;73.88;76075.81;5052781;28;20024;-76
2022/08/31 05:59:15;;;;;;;2.22;1.10;;;;;;;-148.88;74.33;76073.78;5051416;28;20097;-76
2022/08/31 06:01:41;;;;;;;2.47;1.05;;;;;;;-148.88;74.11;76065.66;5052824;28;20029;-76
2022/08/31 06:04:08;;;;;;;1.63;0.80;;;;;;;-148.88;74.23;76073.78;5052045;28;20035;-79
2022/08/31 06:06:34;;;;;;;2.45;1.10;;;;;;;-148.88;73.79;76061.59;5053560;28;20021;-77
2022/08/31 06:08:59;;;;;;;2.17;1.17;;;;;;;-148.88;73.59;76065.66;5056320;28;20063;-77
2022/08/31 06:11:27;;;;;;;2.97;1.20;;;;;;;-148.88;73.76;76069.72;5055424;28;20109;-78
2022/08/31 06:13:55;;;;;;;1.73;1.05;;;;;;;-148.88;74.71;76092.06;5054647;28;20029;-77
2022/08/31 06:16:21;;;;;;;2.72;1.02;;;;;;;-148.88;74.68;76085.97;5054657;28;20091;-76
2022/08/31 06:18:50;;;;;;;2.42;1.00;;;;;;;-148.88;74.46;76073.78;5051608;28;20013;-76
2022/08/31 06:21:19;;;;;;;3.20;1.00;;;;;;;-148.88;74.49;76073.78;5052544;28;20032;-77
2022/08/31 06:23:46;;;;;;;4.07;1.15;;;;;;;-148.88;74.56;76065.66;5052997;28;20021;-77
2022/08/31 06:26:14;;;;;;;2.85;1.33;;;;;;;-148.88;74.61;76065.66;5052447;28;20028;-77
2022/08/31 06:28:41;;;;;;;2.97;1.10;;;;;;;-148.88;74.61;76069.72;5052839;28;20091;-76
2022/08/31 06:31:13;;;;;;;3.45;1.58;;;;;;;-148.88;74.60;76061.59;5052312;28;20094;-76
2022/08/31 06:33:38;;;;;;;1.90;1.08;;;;;;;-148.88;75.09;76073.78;5053678;28;20074;-79
2022/08/31 06:36:09;;;;;;;3.88;1.10;;;;;;;-148.88;74.96;76071.75;5055160;28;20402;-77
2022/08/31 06:38:35;;;;;;;2.08;0.90;;;;;;;-148.88;74.77;76065.66;5053219;28;20507;-78
2022/08/31 06:43:51;;;;;;;5.45;1.52;;;;;;;-148.88;75.38;76088.00;5055522;28;20056;-79
2022/08/31 06:46:18;;;;;;;2.35;1.20;;;;;;;-148.88;75.23;76071.75;5056661;28;20412;-77
2022/08/31 06:48:44;;;;;;;3.28;1.10;;;;;;;-148.88;75.30;76077.84;5055514;28;20054;-80
2022/08/31 06:51:11;;;;;;;4.72;1.50;;;;;;;-148.88;75.26;76057.53;5055503;28;20510;-78
2022/08/31 06:53:41;;;;;;;2.88;1.48;;;;;;;-148.88;75.38;76053.47;5057144;28;20158;-78
2022/08/31 06:56:19;;;;;;;4.55;1.30;;;;;;;-148.88;75.57;76051.44;5054208;28;20041;-78
2022/08/31 06:58:45;;;;;;;3.92;1.00;;;;;;;-148.88;74.96;76049.41;5054044;28;20495;-78
2022/08/31 07:01:14;;;;;;;2.80;1.13;;;;;;;-148.88;75.02;76055.50;5052843;28;20037;-76
2022/08/31 07:03:42;;;;;;;1.90;1.27;;;;;;;-148.88;74.96;76041.28;5052912;28;20028;-78
2022/08/31 07:06:19;;;;;;;3.28;1.25;;;;;;;-148.88;74.83;76035.19;5051736;28;20446;-77
2022/08/31 07:08:47;;;;;;;3.47;1.50;;;;;;;-148.88;74.44;76014.88;5052455;28;20025;-77
2022/08/31 07:11:22;;;;;;;3.72;1.30;;;;;;;-148.88;74.44;76029.09;5052772;28;20033;-77
2022/08/31 07:13:49;;;;;;;2.72;1.27;;;;;;;-148.88;74.54;76029.09;5051622;28;20439;-77
2022/08/31 07:16:16;;;;;;;2.83;1.13;;;;;;;-148.88;74.51;76010.81;5052735;28;20021;-77
2022/08/31 07:18:43;;;;;;;2.95;1.27;;;;;;;-148.88;73.84;76025.03;5051239;28;20021;-77
2022/08/31 07:21:19;;;;;;;4.82;1.40;;;;;;;-148.88;74.30;76020.97;5052601;28;20098;-77
2022/08/31 07:23:46;;;;;;;2.63;1.30;;;;;;;-148.88;74.32;76029.09;5051262;28;20509;-77
2022/08/31 07:26:15;;;;;;;3.17;1.52;;;;;;;-148.88;74.48;76031.13;5052516;28;20029;-77
2022/08/31 07:28:44;;;;;;;3.45;1.50;;;;;;;-148.88;74.14;76004.72;5052344;28;20472;-77
2022/08/31 07:31:14;;;;;;;2.95;1.42;;;;;;;-148.88;73.49;75992.53;5052383;28;20037;-77
2022/08/31 07:33:41;;;;;;;3.45;1.48;;;;;;;-148.88;74.31;75998.63;5051614;28;20021;-78
2022/08/31 07:36:12;;;;;;;2.58;1.40;;;;;;;-148.88;74.56;75976.28;5051345;28;20483;-79
2022/08/31 07:44:09;;;;;;;4.30;1.63;;;;;;;-148.88;73.65;75968.16;5034096;28;20096;-77
2022/08/31 07:46:35;;;;;;;2.72;1.60;;;;;;;-148.88;74.06;75972.22;5049166;28;20052;-77
2022/08/31 07:49:01;;;;;;;3.35;1.48;;;;;;;-148.88;73.87;75958.00;5034017;28;20017;-79
2022/08/31 07:51:27;;;;;;;3.25;1.50;;;;;;;-148.88;73.26;75964.09;5055036;28;20079;-79
2022/08/31 07:53:54;;;;;;;4.60;1.58;;;;;;;-148.88;73.74;75960.03;5054630;28;20029;-79
2022/08/31 07:56:21;;;;;;;3.20;1.52;;;;;;;-148.88;73.97;75951.91;5039258;28;20022;-79
2022/08/31 07:58:49;;;;;;;3.70;1.60;;;;;;;-148.88;73.40;75939.72;5053833;28;20052;-78
2022/08/31 08:01:16;;;;;;;3.20;1.60;;;;;;;-148.88;72.54;75927.53;5054410;28;20031;-79
2022/08/31 08:03:43;;;;;;;4.53;1.65;;;;;;;-148.88;72.33;75921.44;5038919;28;20500;-79
2022/08/31 08:06:16;;;;;;;4.35;2.08;;;;;;;-148.88;72.30;75919.41;5054806;28;20035;-78
2022/08/31 08:08:42;;;;;;;3.47;1.75;;;;;;;-148.88;72.30;75911.28;5037590;28;20022;-79
2022/08/31 08:11:14;;;;;;;4.40;1.80;;;;;;;-148.88;72.38;75899.09;5038347;28;20152;-79
2022/08/31 08:13:40;;;;;;;3.17;1.55;;;;;;;-148.88;72.10;75899.09;5037305;28;20026;-79
2022/08/31 08:16:05;;;;;;;4.60;1.60;;;;;;;-148.88;71.86;75888.94;5051298;28;20178;-79
2022/08/31 08:18:30;;;;;;;2.10;1.35;;;;;;;-148.88;70.91;75874.72;5057411;28;20074;-79
2022/08/31 08:20:56;;;;;;;3.42;1.52;;;;;;;-148.88;71.45;75872.69;5057252;28;20029;-77
2022/08/31 08:23:21;;;;;;;3.28;1.45;;;;;;;-148.88;70.96;75854.41;5056634;28;20029;-77
2022/08/31 08:25:46;;;;;;;5.30;1.80;;;;;;;-148.88;70.36;75846.28;5055573;28;20490;-77
2022/08/31 08:28:16;;;;;;;3.53;1.52;;;;;;;-148.88;69.60;75834.09;5056711;28;20039;-79
2022/08/31 08:30:43;;;;;;;4.63;1.75;;;;;;;-148.88;69.81;75807.69;5057378;28;20032;-79
2022/08/31 08:33:09;;;;;;;2.22;1.30;;;;;;;-148.88;68.50;75789.41;5057341;28;20021;-79
2022/08/31 08:35:34;;;;;;;2.63;1.30;;;;;;;-148.88;67.56;75789.41;5056949;28;20029;-79
2022/08/31 08:38:00;;;;;;;2.53;1.45;;;;;;;-148.88;67.97;75783.31;5057071;28;20027;-79
2022/08/31 08:40:35;;;;;;;3.40;1.30;;;;;;;-148.88;66.75;75760.97;5056672;28;20036;-79
2022/08/31 08:43:03;;;;;;;3.40;1.20;;;;;;;-148.88;66.39;75760.97;5057732;28;20021;-79
2022/08/31 08:45:29;;;;;;;4.03;1.75;;;;;;;-148.88;65.59;75746.75;5057431;28;20066;-79
2022/08/31 08:47:55;;;;;;;2.50;1.20;;;;;;;-148.88;66.06;75736.59;5057302;28;20025;-79
2022/08/31 08:50:26;;;;;;;3.03;1.30;;;;;;;-148.88;65.55;75720.34;5055985;28;20025;-79
2022/08/31 08:52:55;;;;;;;3.25;1.20;;;;;;;-148.88;65.54;75693.94;5057567;28;20491;-79
2022/08/31 08:55:29;;;;;;;4.93;1.50;;;;;;;-148.88;65.66;75659.41;5057721;28;20036;-79
2022/08/31 08:57:55;;;;;;;5.55;1.63;;;;;;;-148.88;64.02;75647.22;5056015;28;20382;-78
2022/08/31 09:00:27;;;;;;;3.47;1.40;;;;;;;-148.88;62.72;75624.88;5053578;28;20021;-77
2022/08/31 09:03:05;;;;;;;3.95;1.50;;;;;;;-148.88;61.87;75602.53;5056447;28;20376;-77
2022/08/31 09:05:55;;;;;;;3.72;1.50;;;;;;;-148.88;62.02;75594.44;5054553;28;20082;-77
2022/08/31 09:08:41;;;;;;;5.32;1.20;;;;;;;-148.88;60.34;75580.22;5054599;28;20107;-77
2022/08/31 09:11:31;;;;;;;3.15;1.20;;;;;;;-148.88;61.25;75549.75;5053000;28;20028;-77
2022/08/31 09:14:14;;;;;;;3.05;1.23;;;;;;;-148.88;61.13;75537.56;5053120;28;20025;-77
2022/08/31 09:16:48;;;;;;;2.88;1.48;;;;;;;-148.88;58.54;75492.88;5058642;28;20047;-79
2022/08/31 09:19:17;;;;;;;3.97;1.30;;;;;;;-148.88;57.73;75513.19;5058047;28;20142;-78
2022/08/31 09:21:56;;;;;;;3.53;1.45;;;;;;;-148.88;57.33;75488.81;5057740;28;20055;-79
2022/08/31 09:24:28;;;;;;;4.57;1.30;;;;;;;-148.88;56.62;75480.69;5056095;28;20023;-79
2022/08/31 09:27:17;;;;;;;3.50;1.20;;;;;;;-148.88;57.08;75464.44;5058796;28;20150;-79
2022/08/31 09:29:52;;;;;;;7.60;1.55;;;;;;;-148.88;55.87;75454.28;5057983;28;20037;-78
2022/08/31 09:32:23;;;;;;;2.72;1.10;;;;;;;-148.88;55.74;75456.31;5058465;28;20029;-79
2022/08/31 09:35:02;;;;;;;5.32;1.52;;;;;;;-148.88;56.33;75407.56;5038543;28;20495;-77
2022/08/31 09:37:36;;;;;;;3.00;1.30;;;;;;;-148.88;54.93;75354.75;5035404;28;20377;-78
2022/08/31 09:40:34;;;;;;;3.10;1.45;;;;;;;-148.88;53.21;75326.31;5045628;28;20025;-78
2022/08/31 09:43:25;;;;;;;4.47;1.65;;;;;;;-148.88;53.31;75342.56;5056872;28;20052;-79
2022/08/31 09:46:01;;;;;;;2.78;1.30;;;;;;;-148.88;54.05;75348.66;5058732;28;20056;-79
2022/08/31 09:48:55;;;;;;;2.70;1.50;;;;;;;-148.88;52.67;75273.53;5057070;28;20422;-80
2022/08/31 09:51:36;;;;;;;2.97;1.35;;;;;;;-148.88;51.70;75232.91;5055517;28;20047;-80
2022/08/31 09:57:10;;;;;;;2.50;1.20;;;;;;;-148.88;50.06;75188.22;5056373;28;20116;-80
2022/08/31 09:59:40;;;;;;;4.03;1.52;;;;;;;-148.88;49.94;75192.28;5055929;28;20056;-80
2022/08/31 10:02:27;;;;;;;4.03;1.42;;;;;;;-148.88;49.85;75196.34;5057244;28;20017;-79
2022/08/31 10:04:55;;;;;;;1.92;1.15;;;;;;;-148.88;50.38;75224.78;5056932;28;20025;-79
2022/08/31 10:07:44;;;;;;;3.78;1.15;;;;;;;-148.88;50.78;75192.28;5056622;28;20021;-80
2022/08/31 10:10:21;;;;;;;2.22;1.05;;;;;;;-148.88;49.72;75141.50;5058356;28;20063;-80
2022/08/31 10:12:57;;;;;;;4.55;1.13;;;;;;;-148.88;48.89;75129.31;5056460;28;20384;-78
2022/08/31 10:15:27;;;;;;;3.40;1.25;;;;;;;-148.88;48.09;75098.84;5053554;28;20441;-78
2022/08/31 10:18:10;;;;;;;2.60;1.20;;;;;;;-148.88;47.81;75064.34;5054032;28;20017;-79
2022/08/31 10:20:47;;;;;;;2.50;1.10;;;;;;;-148.88;47.68;75031.84;5053716;28;20048;-79
2022/08/31 10:23:19;;;;;;;2.53;0.90;;;;;;;-148.88;46.33;75007.47;5057509;28;20029;-80
2022/08/31 10:25:53;;;;;;;4.13;1.25;;;;;;;-148.88;44.97;74989.19;5058763;28;20416;-80
2022/08/31 10:28:39;;;;;;;2.92;1.40;;;;;;;-148.88;45.74;75029.81;5057149;28;20483;-80
2022/08/31 10:31:21;;;;;;;2.83;1.08;;;;;;;-148.88;45.31;74993.25;5057909;28;20025;-79
2022/08/31 10:36:48;;;;;;;7.45;1.65;;;;;;;-148.88;45.13;74970.91;5058132;28;20082;-80
2022/08/31 10:39:26;;;;;;;3.20;1.25;;;;;;;-148.88;45.17;74920.16;5056270;28;20039;-80
2022/08/31 10:41:52;;;;;;;2.85;1.10;;;;;;;-148.88;45.38;74960.75;5056090;28;20186;-80
2022/08/31 10:44:26;;;;;;;5.72;1.13;;;;;;;-148.88;44.43;74952.63;5056618;28;20513;-80
2022/08/31 10:46:58;;;;;;;2.63;1.08;;;;;;;-148.88;45.42;74940.47;5055633;28;20067;-81
2022/08/31 10:49:24;;;;;;;2.70;1.00;;;;;;;-148.88;45.15;74936.41;5057203;28;20096;-79
2022/08/31 10:52:04;;;;;;;2.65;0.98;;;;;;;-148.88;43.70;74879.53;5052927;28;20048;-78
2022/08/31 10:54:54;;;;;;;2.92;1.05;;;;;;;-148.88;43.77;74873.44;5051925;28;20017;-79
2022/08/31 10:57:49;;;;;;;4.43;1.17;;;;;;;-148.88;42.99;74812.53;5053531;28;20029;-79
2022/08/31 11:00:40;;;;;;;2.03;0.98;;;;;;;-148.88;43.27;74855.16;5052303;28;20037;-80
2022/08/31 11:03:44;;;;;;;3.25;1.23;;;;;;;-148.88;42.90;74907.97;5056895;28;20079;-80
2022/08/31 11:06:34;;;;;;;3.33;1.23;;;;;;;-148.88;43.16;74924.22;5057243;28;20112;-79
2022/08/31 11:09:09;;;;;;;4.57;1.45;;;;;;;-148.88;43.98;75015.59;5057068;28;20025;-80
2022/08/31 11:11:41;;;;;;;3.40;1.30;;;;;;;-148.88;44.24;75005.44;5055707;28;20036;-80
2022/08/31 11:14:25;;;;;;;4.15;1.30;;;;;;;-148.88;45.33;75074.50;5056839;28;20029;-80
2022/08/31 11:17:22;;;;;;;2.28;0.98;;;;;;;-148.88;45.38;75009.50;5056095;28;20063;-81
2022/08/31 11:20:42;;;;;;;3.58;1.17;;;;;;;-148.88;45.03;75042.00;5055350;28;20041;-80
2022/08/31 11:23:19;;;;;;;2.35;1.20;;;;;;;-148.88;45.49;75001.38;5038850;28;20029;-79
2022/08/31 11:25:57;;;;;;;4.32;1.27;;;;;;;-148.88;44.81;74972.94;5061467;28;20025;-79
2022/08/31 11:28:35;;;;;;;4.65;1.15;;;;;;;-148.88;43.72;74916.09;5057225;28;20440;-78
2022/08/31 11:31:06;;;;;;;3.80;1.20;;;;;;;-148.88;42.30;74853.13;5055338;28;20055;-78
2022/08/31 11:33:31;;;;;;;3.20;1.10;;;;;;;-148.88;40.79;74826.72;5056977;28;20024;-78
2022/08/31 11:35:59;;;;;;;3.45;0.90;;;;;;;-148.88;41.06;74792.22;5056931;28;20027;-78
2022/08/31 11:39:14;;;;;;;2.88;0.80;;;;;;;-148.88;40.43;74845.00;5058508;28;20013;-79
2022/08/31 11:41:46;;;;;;;2.53;1.27;;;;;;;-148.88;40.41;74847.03;5059548;28;20492;-79
2022/08/31 11:44:38;;;;;;;3.80;0.70;;;;;;;-148.88;40.03;74832.81;5060675;28;20146;-79
2022/08/31 11:47:28;;;;;;;2.45;0.90;;;;;;;-148.88;40.36;74784.09;5059520;28;20038;-80